sensor_id;sensor_type;location;lat;lon;timestamp;P1;durP1;ratioP1;P2;durP2;ratioP2
68653;SDS011;55636;51.108;13.622;2022-08-20T00:00:58;18.73;;;16.73;;
68653;SDS011;55636;51.108;13.622;2022-08-20T00:02:03;19.05;;;16.50;;
68653;SDS011;55636;51.108;13.622;2022-08-20T00:03:12;20.00;;;16.63;;
68653;SDS011;55636;51.108;13.622;2022-08-20T00:04:14;20.88;;;17.35;;
68653;SDS011;55636;51.108;13.622;2022-08-20T00:05:22;19.58;;;16.48;;
68653;SDS011;55636;51.108;13.622;2022-08-20T00:06:28;18.85;;;16.85;;
68653;SDS011;55636;51.108;13.622;2022-08-20T00:07:30;21.05;;;17.70;;
68653;SDS011;55636;51.108;13.622;2022-08-20T00:08:33;20.48;;;17.20;;
68653;SDS011;55636;51.108;13.622;2022-08-20T00:09:35;18.70;;;16.75;;
68653;SDS011;55636;51.108;13.622;2022-08-20T00:10:38;20.02;;;17.40;;
68653;SDS011;55636;51.108;13.622;2022-08-20T00:11:42;17.73;;;15.73;;
68653;SDS011;55636;51.108;13.622;2022-08-20T00:12:46;20.00;;;17.25;;
68653;SDS011;55636;51.108;13.622;2022-08-20T00:13:51;21.55;;;19.08;;
68653;SDS011;55636;51.108;13.622;2022-08-20T00:14:55;18.83;;;16.52;;
68653;SDS011;55636;51.108;13.622;2022-08-20T00:15:58;19.92;;;17.83;;
68653;SDS011;55636;51.108;13.622;2022-08-20T00:17:01;20.77;;;17.45;;
68653;SDS011;55636;51.108;13.622;2022-08-20T00:18:05;19.58;;;17.35;;
68653;SDS011;55636;51.108;13.622;2022-08-20T00:19:08;19.95;;;17.70;;
68653;SDS011;55636;51.108;13.622;2022-08-20T00:20:11;20.15;;;17.60;;
68653;SDS011;55636;51.108;13.622;2022-08-20T00:21:15;18.52;;;16.52;;
68653;SDS011;55636;51.108;13.622;2022-08-20T00:22:20;20.88;;;16.73;;
68653;SDS011;55636;51.108;13.622;2022-08-20T00:23:23;23.60;;;18.00;;
68653;SDS011;55636;51.108;13.622;2022-08-20T00:24:25;22.95;;;17.98;;
68653;SDS011;55636;51.108;13.622;2022-08-20T00:25:28;20.08;;;16.00;;
68653;SDS011;55636;51.108;13.622;2022-08-20T00:26:30;19.88;;;17.77;;
68653;SDS011;55636;51.108;13.622;2022-08-20T00:27:32;18.08;;;16.15;;
68653;SDS011;55636;51.108;13.622;2022-08-20T00:28:35;21.67;;;17.90;;
68653;SDS011;55636;51.108;13.622;2022-08-20T00:29:37;20.65;;;18.17;;
68653;SDS011;55636;51.108;13.622;2022-08-20T00:30:41;23.90;;;18.73;;
68653;SDS011;55636;51.108;13.622;2022-08-20T00:31:45;21.73;;;18.83;;
68653;SDS011;55636;51.108;13.622;2022-08-20T00:32:55;20.85;;;18.02;;
68653;SDS011;55636;51.108;13.622;2022-08-20T00:34:01;20.02;;;17.15;;
68653;SDS011;55636;51.108;13.622;2022-08-20T00:35:03;20.40;;;18.15;;
68653;SDS011;55636;51.108;13.622;2022-08-20T00:36:06;21.45;;;18.42;;
68653;SDS011;55636;51.108;13.622;2022-08-20T00:37:11;20.45;;;18.30;;
68653;SDS011;55636;51.108;13.622;2022-08-20T00:38:13;22.92;;;19.00;;
68653;SDS011;55636;51.108;13.622;2022-08-20T00:39:16;22.48;;;19.58;;
68653;SDS011;55636;51.108;13.622;2022-08-20T00:40:20;21.67;;;18.75;;
68653;SDS011;55636;51.108;13.622;2022-08-20T00:41:31;21.15;;;18.58;;
68653;SDS011;55636;51.108;13.622;2022-08-20T00:42:44;21.02;;;18.10;;
68653;SDS011;55636;51.108;13.622;2022-08-20T00:45:20;22.25;;;18.38;;
68653;SDS011;55636;51.108;13.622;2022-08-20T00:46:23;21.45;;;18.58;;
68653;SDS011;55636;51.108;13.622;2022-08-20T00:47:32;21.42;;;17.58;;
68653;SDS011;55636;51.108;13.622;2022-08-20T00:48:36;19.77;;;17.08;;
68653;SDS011;55636;51.108;13.622;2022-08-20T00:49:40;20.77;;;18.13;;
68653;SDS011;55636;51.108;13.622;2022-08-20T00:50:43;22.15;;;18.05;;
68653;SDS011;55636;51.108;13.622;2022-08-20T00:51:48;22.33;;;18.95;;
68653;SDS011;55636;51.108;13.622;2022-08-20T00:52:54;22.20;;;19.52;;
68653;SDS011;55636;51.108;13.622;2022-08-20T00:53:59;21.17;;;18.88;;
68653;SDS011;55636;51.108;13.622;2022-08-20T00:55:19;20.85;;;18.30;;
68653;SDS011;55636;51.108;13.622;2022-08-20T00:56:27;21.27;;;18.40;;
68653;SDS011;55636;51.108;13.622;2022-08-20T00:57:32;20.63;;;17.92;;
68653;SDS011;55636;51.108;13.622;2022-08-20T00:58:59;24.75;;;20.02;;
68653;SDS011;55636;51.108;13.622;2022-08-20T01:00:05;21.50;;;18.58;;
68653;SDS011;55636;51.108;13.622;2022-08-20T01:01:12;21.38;;;18.92;;
68653;SDS011;55636;51.108;13.622;2022-08-20T01:02:16;23.38;;;20.15;;
68653;SDS011;55636;51.108;13.622;2022-08-20T01:03:22;22.13;;;19.75;;
68653;SDS011;55636;51.108;13.622;2022-08-20T01:04:29;22.65;;;20.00;;
68653;SDS011;55636;51.108;13.622;2022-08-20T01:05:39;23.27;;;19.92;;
68653;SDS011;55636;51.108;13.622;2022-08-20T01:06:43;22.67;;;19.67;;
68653;SDS011;55636;51.108;13.622;2022-08-20T01:07:45;23.40;;;19.92;;
68653;SDS011;55636;51.108;13.622;2022-08-20T01:08:52;23.98;;;19.83;;
68653;SDS011;55636;51.108;13.622;2022-08-20T01:09:54;24.63;;;20.70;;
68653;SDS011;55636;51.108;13.622;2022-08-20T01:11:00;24.25;;;21.02;;
68653;SDS011;55636;51.108;13.622;2022-08-20T01:12:11;24.30;;;20.00;;
68653;SDS011;55636;51.108;13.622;2022-08-20T01:13:16;22.98;;;20.38;;
68653;SDS011;55636;51.108;13.622;2022-08-20T01:14:22;24.80;;;20.73;;
68653;SDS011;55636;51.108;13.622;2022-08-20T01:15:29;23.27;;;20.15;;
68653;SDS011;55636;51.108;13.622;2022-08-20T01:16:32;22.23;;;19.45;;
68653;SDS011;55636;51.108;13.622;2022-08-20T01:17:42;24.08;;;21.15;;
68653;SDS011;55636;51.108;13.622;2022-08-20T01:18:48;24.88;;;21.58;;
68653;SDS011;55636;51.108;13.622;2022-08-20T01:19:53;23.55;;;20.50;;
68653;SDS011;55636;51.108;13.622;2022-08-20T01:20:59;23.73;;;21.20;;
68653;SDS011;55636;51.108;13.622;2022-08-20T01:22:04;25.38;;;22.08;;
68653;SDS011;55636;51.108;13.622;2022-08-20T01:23:35;23.70;;;21.08;;
68653;SDS011;55636;51.108;13.622;2022-08-20T01:24:45;23.75;;;20.65;;
68653;SDS011;55636;51.108;13.622;2022-08-20T01:26:02;23.08;;;19.80;;
68653;SDS011;55636;51.108;13.622;2022-08-20T01:27:10;22.20;;;19.33;;
68653;SDS011;55636;51.108;13.622;2022-08-20T01:28:17;24.55;;;20.17;;
68653;SDS011;55636;51.108;13.622;2022-08-20T01:29:24;23.20;;;20.27;;
68653;SDS011;55636;51.108;13.622;2022-08-20T01:30:30;25.77;;;21.00;;
68653;SDS011;55636;51.108;13.622;2022-08-20T01:31:35;26.25;;;22.40;;
68653;SDS011;55636;51.108;13.622;2022-08-20T01:32:39;26.10;;;22.15;;
68653;SDS011;55636;51.108;13.622;2022-08-20T01:33:42;24.30;;;20.70;;
68653;SDS011;55636;51.108;13.622;2022-08-20T01:34:47;23.73;;;20.60;;
68653;SDS011;55636;51.108;13.622;2022-08-20T01:35:50;26.73;;;20.98;;
68653;SDS011;55636;51.108;13.622;2022-08-20T01:36:53;26.02;;;20.73;;
68653;SDS011;55636;51.108;13.622;2022-08-20T01:37:58;23.90;;;21.00;;
68653;SDS011;55636;51.108;13.622;2022-08-20T01:39:01;24.40;;;21.73;;
68653;SDS011;55636;51.108;13.622;2022-08-20T01:40:06;22.23;;;19.90;;
68653;SDS011;55636;51.108;13.622;2022-08-20T01:42:43;24.73;;;21.48;;
68653;SDS011;55636;51.108;13.622;2022-08-20T01:44:00;23.92;;;21.25;;
68653;SDS011;55636;51.108;13.622;2022-08-20T01:45:04;24.88;;;21.65;;
68653;SDS011;55636;51.108;13.622;2022-08-20T01:46:08;24.65;;;21.23;;
68653;SDS011;55636;51.108;13.622;2022-08-20T01:48:17;23.30;;;20.48;;
68653;SDS011;55636;51.108;13.622;2022-08-20T01:50:25;27.25;;;22.67;;
68653;SDS011;55636;51.108;13.622;2022-08-20T01:51:31;26.00;;;21.95;;
68653;SDS011;55636;51.108;13.622;2022-08-20T01:53:57;25.88;;;22.48;;
68653;SDS011;55636;51.108;13.622;2022-08-20T01:55:00;25.73;;;21.95;;
68653;SDS011;55636;51.108;13.622;2022-08-20T01:56:04;25.23;;;21.63;;
68653;SDS011;55636;51.108;13.622;2022-08-20T01:57:10;26.20;;;22.20;;
68653;SDS011;55636;51.108;13.622;2022-08-20T01:58:15;25.75;;;21.90;;
68653;SDS011;55636;51.108;13.622;2022-08-20T01:59:18;24.95;;;21.50;;
68653;SDS011;55636;51.108;13.622;2022-08-20T02:00:20;26.52;;;22.90;;
68653;SDS011;55636;51.108;13.622;2022-08-20T02:02:28;25.27;;;22.38;;
68653;SDS011;55636;51.108;13.622;2022-08-20T02:03:30;26.85;;;21.63;;
68653;SDS011;55636;51.108;13.622;2022-08-20T02:04:39;27.73;;;23.17;;
68653;SDS011;55636;51.108;13.622;2022-08-20T02:05:42;25.05;;;21.02;;
68653;SDS011;55636;51.108;13.622;2022-08-20T02:06:46;26.17;;;22.98;;
68653;SDS011;55636;51.108;13.622;2022-08-20T02:07:58;26.30;;;23.02;;
68653;SDS011;55636;51.108;13.622;2022-08-20T02:09:01;28.10;;;22.95;;
68653;SDS011;55636;51.108;13.622;2022-08-20T02:10:07;29.38;;;23.35;;
68653;SDS011;55636;51.108;13.622;2022-08-20T02:11:12;26.55;;;23.08;;
68653;SDS011;55636;51.108;13.622;2022-08-20T02:12:14;26.77;;;23.13;;
68653;SDS011;55636;51.108;13.622;2022-08-20T02:13:18;27.58;;;23.30;;
68653;SDS011;55636;51.108;13.622;2022-08-20T02:14:21;27.50;;;23.20;;
68653;SDS011;55636;51.108;13.622;2022-08-20T02:15:24;28.70;;;23.73;;
68653;SDS011;55636;51.108;13.622;2022-08-20T02:16:38;26.45;;;22.73;;
68653;SDS011;55636;51.108;13.622;2022-08-20T02:17:42;26.02;;;23.10;;
68653;SDS011;55636;51.108;13.622;2022-08-20T02:18:44;28.35;;;23.95;;
68653;SDS011;55636;51.108;13.622;2022-08-20T02:19:49;29.00;;;23.35;;
68653;SDS011;55636;51.108;13.622;2022-08-20T02:20:57;27.13;;;23.92;;
68653;SDS011;55636;51.108;13.622;2022-08-20T02:22:01;28.25;;;23.58;;
68653;SDS011;55636;51.108;13.622;2022-08-20T02:23:08;28.02;;;24.00;;
68653;SDS011;55636;51.108;13.622;2022-08-20T02:24:11;28.52;;;24.17;;
68653;SDS011;55636;51.108;13.622;2022-08-20T02:25:14;29.63;;;23.63;;
68653;SDS011;55636;51.108;13.622;2022-08-20T02:26:18;26.42;;;23.02;;
68653;SDS011;55636;51.108;13.622;2022-08-20T02:27:20;28.95;;;25.27;;
68653;SDS011;55636;51.108;13.622;2022-08-20T02:28:25;27.88;;;23.83;;
68653;SDS011;55636;51.108;13.622;2022-08-20T02:29:28;28.35;;;23.83;;
68653;SDS011;55636;51.108;13.622;2022-08-20T02:30:33;29.60;;;24.08;;
68653;SDS011;55636;51.108;13.622;2022-08-20T02:31:37;29.08;;;24.52;;
68653;SDS011;55636;51.108;13.622;2022-08-20T02:33:01;28.90;;;23.90;;
68653;SDS011;55636;51.108;13.622;2022-08-20T02:34:06;27.10;;;22.92;;
68653;SDS011;55636;51.108;13.622;2022-08-20T02:35:23;29.42;;;24.15;;
68653;SDS011;55636;51.108;13.622;2022-08-20T02:36:26;28.83;;;24.00;;
68653;SDS011;55636;51.108;13.622;2022-08-20T02:37:28;28.05;;;24.02;;
68653;SDS011;55636;51.108;13.622;2022-08-20T02:38:31;27.33;;;24.02;;
68653;SDS011;55636;51.108;13.622;2022-08-20T02:39:36;28.98;;;24.02;;
68653;SDS011;55636;51.108;13.622;2022-08-20T02:40:38;27.98;;;22.98;;
68653;SDS011;55636;51.108;13.622;2022-08-20T02:41:40;27.40;;;23.83;;
68653;SDS011;55636;51.108;13.622;2022-08-20T02:42:43;29.70;;;25.52;;
68653;SDS011;55636;51.108;13.622;2022-08-20T02:43:47;31.58;;;25.38;;
68653;SDS011;55636;51.108;13.622;2022-08-20T02:44:52;28.60;;;24.13;;
68653;SDS011;55636;51.108;13.622;2022-08-20T02:45:55;29.70;;;24.98;;
68653;SDS011;55636;51.108;13.622;2022-08-20T02:46:57;29.98;;;25.08;;
68653;SDS011;55636;51.108;13.622;2022-08-20T02:48:01;28.00;;;24.17;;
68653;SDS011;55636;51.108;13.622;2022-08-20T02:49:04;31.60;;;24.27;;
68653;SDS011;55636;51.108;13.622;2022-08-20T02:50:10;31.08;;;25.42;;
68653;SDS011;55636;51.108;13.622;2022-08-20T02:51:15;29.70;;;24.75;;
68653;SDS011;55636;51.108;13.622;2022-08-20T02:52:17;30.63;;;25.67;;
68653;SDS011;55636;51.108;13.622;2022-08-20T02:53:20;30.13;;;25.48;;
68653;SDS011;55636;51.108;13.622;2022-08-20T02:54:23;30.23;;;25.25;;
68653;SDS011;55636;51.108;13.622;2022-08-20T02:55:25;28.55;;;24.77;;
68653;SDS011;55636;51.108;13.622;2022-08-20T02:56:29;26.85;;;23.45;;
68653;SDS011;55636;51.108;13.622;2022-08-20T02:57:31;28.35;;;24.25;;
68653;SDS011;55636;51.108;13.622;2022-08-20T02:58:41;28.88;;;24.95;;
68653;SDS011;55636;51.108;13.622;2022-08-20T02:59:43;29.08;;;24.33;;
68653;SDS011;55636;51.108;13.622;2022-08-20T03:00:46;28.65;;;24.90;;
68653;SDS011;55636;51.108;13.622;2022-08-20T03:01:49;32.33;;;25.80;;
68653;SDS011;55636;51.108;13.622;2022-08-20T03:03:01;28.63;;;25.20;;
68653;SDS011;55636;51.108;13.622;2022-08-20T03:04:05;29.05;;;25.50;;
68653;SDS011;55636;51.108;13.622;2022-08-20T03:05:07;27.60;;;24.00;;
68653;SDS011;55636;51.108;13.622;2022-08-20T03:06:10;30.35;;;25.95;;
68653;SDS011;55636;51.108;13.622;2022-08-20T03:07:14;30.25;;;25.42;;
68653;SDS011;55636;51.108;13.622;2022-08-20T03:08:17;28.10;;;24.33;;
68653;SDS011;55636;51.108;13.622;2022-08-20T03:09:27;29.38;;;24.60;;
68653;SDS011;55636;51.108;13.622;2022-08-20T03:10:30;28.48;;;24.55;;
68653;SDS011;55636;51.108;13.622;2022-08-20T03:11:34;27.67;;;23.58;;
68653;SDS011;55636;51.108;13.622;2022-08-20T03:12:37;29.05;;;23.95;;
68653;SDS011;55636;51.108;13.622;2022-08-20T03:13:39;28.65;;;25.02;;
68653;SDS011;55636;51.108;13.622;2022-08-20T03:14:42;30.40;;;24.63;;
68653;SDS011;55636;51.108;13.622;2022-08-20T03:15:46;32.42;;;25.13;;
68653;SDS011;55636;51.108;13.622;2022-08-20T03:17:00;30.70;;;25.20;;
68653;SDS011;55636;51.108;13.622;2022-08-20T03:18:02;30.65;;;25.95;;
68653;SDS011;55636;51.108;13.622;2022-08-20T03:19:04;30.00;;;24.40;;
68653;SDS011;55636;51.108;13.622;2022-08-20T03:20:06;27.77;;;24.67;;
68653;SDS011;55636;51.108;13.622;2022-08-20T03:21:09;29.85;;;25.20;;
68653;SDS011;55636;51.108;13.622;2022-08-20T03:22:15;27.25;;;23.83;;
68653;SDS011;55636;51.108;13.622;2022-08-20T03:23:18;29.35;;;25.67;;
68653;SDS011;55636;51.108;13.622;2022-08-20T03:24:21;29.70;;;25.42;;
68653;SDS011;55636;51.108;13.622;2022-08-20T03:25:24;30.30;;;25.52;;
68653;SDS011;55636;51.108;13.622;2022-08-20T03:26:27;29.92;;;24.73;;
68653;SDS011;55636;51.108;13.622;2022-08-20T03:27:29;30.08;;;25.23;;
68653;SDS011;55636;51.108;13.622;2022-08-20T03:28:37;28.50;;;24.05;;
68653;SDS011;55636;51.108;13.622;2022-08-20T03:29:40;25.50;;;22.73;;
68653;SDS011;55636;51.108;13.622;2022-08-20T03:30:42;28.63;;;23.17;;
68653;SDS011;55636;51.108;13.622;2022-08-20T03:31:45;29.48;;;24.02;;
68653;SDS011;55636;51.108;13.622;2022-08-20T03:32:49;27.35;;;23.42;;
68653;SDS011;55636;51.108;13.622;2022-08-20T03:33:52;26.77;;;23.58;;
68653;SDS011;55636;51.108;13.622;2022-08-20T03:34:54;26.25;;;22.95;;
68653;SDS011;55636;51.108;13.622;2022-08-20T03:35:57;27.75;;;23.77;;
68653;SDS011;55636;51.108;13.622;2022-08-20T03:36:59;29.52;;;24.98;;
68653;SDS011;55636;51.108;13.622;2022-08-20T03:38:04;25.70;;;22.92;;
68653;SDS011;55636;51.108;13.622;2022-08-20T03:39:09;28.00;;;22.98;;
68653;SDS011;55636;51.108;13.622;2022-08-20T03:40:15;27.80;;;22.77;;
68653;SDS011;55636;51.108;13.622;2022-08-20T03:41:24;25.15;;;22.30;;
68653;SDS011;55636;51.108;13.622;2022-08-20T03:42:27;26.77;;;22.83;;
68653;SDS011;55636;51.108;13.622;2022-08-20T03:43:30;25.45;;;21.35;;
68653;SDS011;55636;51.108;13.622;2022-08-20T03:44:32;25.13;;;21.60;;
68653;SDS011;55636;51.108;13.622;2022-08-20T03:45:36;24.27;;;20.98;;
68653;SDS011;55636;51.108;13.622;2022-08-20T03:46:40;24.50;;;20.38;;
68653;SDS011;55636;51.108;13.622;2022-08-20T03:47:42;23.73;;;20.73;;
68653;SDS011;55636;51.108;13.622;2022-08-20T03:48:44;24.17;;;20.75;;
68653;SDS011;55636;51.108;13.622;2022-08-20T03:49:49;25.17;;;21.40;;
68653;SDS011;55636;51.108;13.622;2022-08-20T03:50:52;22.63;;;19.30;;
68653;SDS011;55636;51.108;13.622;2022-08-20T03:51:54;21.73;;;19.20;;
68653;SDS011;55636;51.108;13.622;2022-08-20T03:52:59;21.15;;;18.40;;
68653;SDS011;55636;51.108;13.622;2022-08-20T03:54:02;23.10;;;20.38;;
68653;SDS011;55636;51.108;13.622;2022-08-20T03:55:05;21.42;;;18.77;;
68653;SDS011;55636;51.108;13.622;2022-08-20T03:56:09;22.38;;;19.90;;
68653;SDS011;55636;51.108;13.622;2022-08-20T03:57:13;22.65;;;18.95;;
68653;SDS011;55636;51.108;13.622;2022-08-20T03:58:16;22.40;;;18.80;;
68653;SDS011;55636;51.108;13.622;2022-08-20T03:59:20;19.75;;;17.67;;
68653;SDS011;55636;51.108;13.622;2022-08-20T04:00:27;21.45;;;18.33;;
68653;SDS011;55636;51.108;13.622;2022-08-20T04:01:32;21.02;;;17.65;;
68653;SDS011;55636;51.108;13.622;2022-08-20T04:02:47;18.67;;;16.67;;
68653;SDS011;55636;51.108;13.622;2022-08-20T04:03:50;19.85;;;17.05;;
68653;SDS011;55636;51.108;13.622;2022-08-20T04:04:56;18.75;;;16.77;;
68653;SDS011;55636;51.108;13.622;2022-08-20T04:05:58;18.30;;;16.08;;
68653;SDS011;55636;51.108;13.622;2022-08-20T04:07:07;18.98;;;16.13;;
68653;SDS011;55636;51.108;13.622;2022-08-20T04:08:16;17.90;;;15.68;;
68653;SDS011;55636;51.108;13.622;2022-08-20T04:09:20;17.65;;;15.75;;
68653;SDS011;55636;51.108;13.622;2022-08-20T04:10:23;17.50;;;15.60;;
68653;SDS011;55636;51.108;13.622;2022-08-20T04:11:26;18.95;;;15.65;;
68653;SDS011;55636;51.108;13.622;2022-08-20T04:12:28;17.25;;;14.93;;
68653;SDS011;55636;51.108;13.622;2022-08-20T04:13:30;17.10;;;15.30;;
68653;SDS011;55636;51.108;13.622;2022-08-20T04:14:33;16.00;;;14.30;;
68653;SDS011;55636;51.108;13.622;2022-08-20T04:15:38;16.40;;;14.48;;
68653;SDS011;55636;51.108;13.622;2022-08-20T04:16:40;16.60;;;14.80;;
68653;SDS011;55636;51.108;13.622;2022-08-20T04:17:45;15.93;;;14.32;;
68653;SDS011;55636;51.108;13.622;2022-08-20T04:18:48;17.35;;;14.77;;
68653;SDS011;55636;51.108;13.622;2022-08-20T04:20:03;15.48;;;13.82;;
68653;SDS011;55636;51.108;13.622;2022-08-20T04:21:09;16.48;;;14.38;;
68653;SDS011;55636;51.108;13.622;2022-08-20T04:22:12;14.48;;;12.95;;
68653;SDS011;55636;51.108;13.622;2022-08-20T04:23:15;16.40;;;14.00;;
68653;SDS011;55636;51.108;13.622;2022-08-20T04:24:17;15.40;;;13.80;;
68653;SDS011;55636;51.108;13.622;2022-08-20T04:25:33;14.70;;;13.15;;
68653;SDS011;55636;51.108;13.622;2022-08-20T04:26:37;14.43;;;12.93;;
68653;SDS011;55636;51.108;13.622;2022-08-20T04:27:40;14.40;;;12.90;;
68653;SDS011;55636;51.108;13.622;2022-08-20T04:28:43;15.80;;;13.90;;
68653;SDS011;55636;51.108;13.622;2022-08-20T04:29:45;13.50;;;11.73;;
68653;SDS011;55636;51.108;13.622;2022-08-20T04:30:47;14.05;;;12.25;;
68653;SDS011;55636;51.108;13.622;2022-08-20T04:31:52;13.30;;;12.00;;
68653;SDS011;55636;51.108;13.622;2022-08-20T04:32:56;13.57;;;12.18;;
68653;SDS011;55636;51.108;13.622;2022-08-20T04:34:00;14.15;;;12.25;;
68653;SDS011;55636;51.108;13.622;2022-08-20T04:35:04;13.98;;;11.90;;
68653;SDS011;55636;51.108;13.622;2022-08-20T04:36:08;12.35;;;11.05;;
68653;SDS011;55636;51.108;13.622;2022-08-20T04:37:11;12.98;;;11.68;;
68653;SDS011;55636;51.108;13.622;2022-08-20T04:38:18;12.93;;;11.27;;
68653;SDS011;55636;51.108;13.622;2022-08-20T04:39:47;13.82;;;11.02;;
68653;SDS011;55636;51.108;13.622;2022-08-20T04:41:10;12.40;;;11.10;;
68653;SDS011;55636;51.108;13.622;2022-08-20T04:42:24;12.68;;;11.38;;
68653;SDS011;55636;51.108;13.622;2022-08-20T04:43:28;12.20;;;10.90;;
68653;SDS011;55636;51.108;13.622;2022-08-20T04:44:31;12.35;;;10.70;;
68653;SDS011;55636;51.108;13.622;2022-08-20T04:45:34;12.20;;;10.75;;
68653;SDS011;55636;51.108;13.622;2022-08-20T04:46:36;12.55;;;10.93;;
68653;SDS011;55636;51.108;13.622;2022-08-20T04:47:42;11.55;;;10.35;;
68653;SDS011;55636;51.108;13.622;2022-08-20T04:48:44;10.63;;;9.43;;
68653;SDS011;55636;51.108;13.622;2022-08-20T04:49:49;11.50;;;10.27;;
68653;SDS011;55636;51.108;13.622;2022-08-20T04:50:58;11.10;;;9.93;;
68653;SDS011;55636;51.108;13.622;2022-08-20T04:52:04;11.68;;;10.00;;
68653;SDS011;55636;51.108;13.622;2022-08-20T04:53:07;11.25;;;10.15;;
68653;SDS011;55636;51.108;13.622;2022-08-20T04:54:11;12.10;;;10.60;;
68653;SDS011;55636;51.108;13.622;2022-08-20T04:55:15;11.35;;;10.15;;
68653;SDS011;55636;51.108;13.622;2022-08-20T04:56:18;10.93;;;9.82;;
68653;SDS011;55636;51.108;13.622;2022-08-20T04:57:25;11.43;;;10.23;;
68653;SDS011;55636;51.108;13.622;2022-08-20T04:58:30;11.10;;;10.00;;
68653;SDS011;55636;51.108;13.622;2022-08-20T04:59:35;11.98;;;10.30;;
68653;SDS011;55636;51.108;13.622;2022-08-20T05:00:38;11.70;;;10.50;;
68653;SDS011;55636;51.108;13.622;2022-08-20T05:01:40;10.77;;;9.38;;
68653;SDS011;55636;51.108;13.622;2022-08-20T05:02:42;12.00;;;9.50;;
68653;SDS011;55636;51.108;13.622;2022-08-20T05:03:45;11.00;;;9.90;;
68653;SDS011;55636;51.108;13.622;2022-08-20T05:04:50;11.45;;;10.25;;
68653;SDS011;55636;51.108;13.622;2022-08-20T05:05:52;11.50;;;10.32;;
68653;SDS011;55636;51.108;13.622;2022-08-20T05:06:55;12.27;;;10.98;;
68653;SDS011;55636;51.108;13.622;2022-08-20T05:07:57;11.80;;;10.55;;
68653;SDS011;55636;51.108;13.622;2022-08-20T05:08:59;11.77;;;10.57;;
68653;SDS011;55636;51.108;13.622;2022-08-20T05:10:03;13.70;;;11.50;;
68653;SDS011;55636;51.108;13.622;2022-08-20T05:11:07;13.00;;;11.63;;
68653;SDS011;55636;51.108;13.622;2022-08-20T05:12:30;12.88;;;11.48;;
68653;SDS011;55636;51.108;13.622;2022-08-20T05:13:32;14.98;;;11.95;;
68653;SDS011;55636;51.108;13.622;2022-08-20T05:14:34;14.10;;;12.60;;
68653;SDS011;55636;51.108;13.622;2022-08-20T05:15:37;16.52;;;14.70;;
68653;SDS011;55636;51.108;13.622;2022-08-20T05:16:40;17.52;;;14.68;;
68653;SDS011;55636;51.108;13.622;2022-08-20T05:17:42;15.93;;;14.25;;
68653;SDS011;55636;51.108;13.622;2022-08-20T05:18:45;19.17;;;15.95;;
68653;SDS011;55636;51.108;13.622;2022-08-20T05:19:53;17.45;;;14.60;;
68653;SDS011;55636;51.108;13.622;2022-08-20T05:20:55;17.25;;;15.32;;
68653;SDS011;55636;51.108;13.622;2022-08-20T05:22:03;18.92;;;16.20;;
68653;SDS011;55636;51.108;13.622;2022-08-20T05:23:08;31.90;;;26.63;;
68653;SDS011;55636;51.108;13.622;2022-08-20T05:24:13;48.20;;;35.53;;
68653;SDS011;55636;51.108;13.622;2022-08-20T05:25:15;38.63;;;32.40;;
68653;SDS011;55636;51.108;13.622;2022-08-20T05:26:18;38.70;;;32.35;;
68653;SDS011;55636;51.108;13.622;2022-08-20T05:27:21;30.90;;;25.17;;
68653;SDS011;55636;51.108;13.622;2022-08-20T05:28:28;29.23;;;24.08;;
68653;SDS011;55636;51.108;13.622;2022-08-20T05:29:37;20.08;;;17.88;;
68653;SDS011;55636;51.108;13.622;2022-08-20T05:30:40;20.50;;;18.27;;
68653;SDS011;55636;51.108;13.622;2022-08-20T05:31:44;20.55;;;18.33;;
68653;SDS011;55636;51.108;13.622;2022-08-20T05:32:46;22.73;;;19.17;;
68653;SDS011;55636;51.108;13.622;2022-08-20T05:33:50;20.77;;;18.15;;
68653;SDS011;55636;51.108;13.622;2022-08-20T05:34:52;22.65;;;18.10;;
68653;SDS011;55636;51.108;13.622;2022-08-20T05:35:56;19.17;;;16.70;;
68653;SDS011;55636;51.108;13.622;2022-08-20T05:37:01;20.20;;;16.88;;
68653;SDS011;55636;51.108;13.622;2022-08-20T05:38:09;17.90;;;15.50;;
68653;SDS011;55636;51.108;13.622;2022-08-20T05:39:14;20.15;;;15.85;;
68653;SDS011;55636;51.108;13.622;2022-08-20T05:40:17;17.83;;;15.70;;
68653;SDS011;55636;51.108;13.622;2022-08-20T05:41:19;16.02;;;14.35;;
68653;SDS011;55636;51.108;13.622;2022-08-20T05:42:30;17.50;;;15.25;;
68653;SDS011;55636;51.108;13.622;2022-08-20T05:43:32;16.77;;;14.73;;
68653;SDS011;55636;51.108;13.622;2022-08-20T05:44:35;18.40;;;16.00;;
68653;SDS011;55636;51.108;13.622;2022-08-20T05:45:39;17.48;;;15.52;;
68653;SDS011;55636;51.108;13.622;2022-08-20T05:46:43;17.30;;;15.50;;
68653;SDS011;55636;51.108;13.622;2022-08-20T05:47:48;16.02;;;14.25;;
68653;SDS011;55636;51.108;13.622;2022-08-20T05:48:58;16.83;;;14.85;;
68653;SDS011;55636;51.108;13.622;2022-08-20T05:50:03;17.15;;;15.18;;
68653;SDS011;55636;51.108;13.622;2022-08-20T05:51:06;17.52;;;14.77;;
68653;SDS011;55636;51.108;13.622;2022-08-20T05:52:13;18.08;;;15.07;;
68653;SDS011;55636;51.108;13.622;2022-08-20T05:53:17;17.92;;;14.98;;
68653;SDS011;55636;51.108;13.622;2022-08-20T05:54:20;17.38;;;14.93;;
68653;SDS011;55636;51.108;13.622;2022-08-20T05:55:22;16.58;;;14.80;;
68653;SDS011;55636;51.108;13.622;2022-08-20T05:56:25;17.52;;;15.15;;
68653;SDS011;55636;51.108;13.622;2022-08-20T05:57:31;16.95;;;14.73;;
68653;SDS011;55636;51.108;13.622;2022-08-20T05:58:35;16.85;;;15.10;;
68653;SDS011;55636;51.108;13.622;2022-08-20T05:59:38;17.55;;;15.07;;
68653;SDS011;55636;51.108;13.622;2022-08-20T06:00:40;16.90;;;15.10;;
68653;SDS011;55636;51.108;13.622;2022-08-20T06:01:42;17.17;;;15.38;;
68653;SDS011;55636;51.108;13.622;2022-08-20T06:02:45;16.60;;;14.80;;
68653;SDS011;55636;51.108;13.622;2022-08-20T06:04:06;17.50;;;15.60;;
68653;SDS011;55636;51.108;13.622;2022-08-20T06:05:27;17.15;;;15.18;;
68653;SDS011;55636;51.108;13.622;2022-08-20T06:06:32;18.25;;;15.85;;
68653;SDS011;55636;51.108;13.622;2022-08-20T06:07:47;17.75;;;15.85;;
68653;SDS011;55636;51.108;13.622;2022-08-20T06:08:55;18.17;;;16.20;;
68653;SDS011;55636;51.108;13.622;2022-08-20T06:09:58;16.92;;;15.00;;
68653;SDS011;55636;51.108;13.622;2022-08-20T06:11:01;18.73;;;15.88;;
68653;SDS011;55636;51.108;13.622;2022-08-20T06:12:05;17.02;;;15.13;;
68653;SDS011;55636;51.108;13.622;2022-08-20T06:13:09;17.55;;;15.70;;
68653;SDS011;55636;51.108;13.622;2022-08-20T06:14:15;18.85;;;16.77;;
68653;SDS011;55636;51.108;13.622;2022-08-20T06:15:19;18.13;;;16.15;;
68653;SDS011;55636;51.108;13.622;2022-08-20T06:16:24;19.48;;;17.42;;
68653;SDS011;55636;51.108;13.622;2022-08-20T06:17:30;19.63;;;16.98;;
68653;SDS011;55636;51.108;13.622;2022-08-20T06:18:40;19.50;;;16.85;;
68653;SDS011;55636;51.108;13.622;2022-08-20T06:19:44;18.52;;;16.63;;
68653;SDS011;55636;51.108;13.622;2022-08-20T06:20:47;18.67;;;16.67;;
68653;SDS011;55636;51.108;13.622;2022-08-20T06:21:51;19.65;;;17.48;;
68653;SDS011;55636;51.108;13.622;2022-08-20T06:22:54;18.90;;;16.90;;